aviador You're here:

FMCZ Decoded Metar

DZAOUDZI in MAYOTTE ISLAND
Report Time2018-07-22 02:34:00
UTC Time2018-07-22 02:46:34
Flight Rules vfr VFR
Wind150° at 12 kt
W.Decomp.*RWY 16: 12.0 kt HW 0.4 kt LCW
W.Rank150° ranks 4
Current wind is above 150° avg. (7.9)
Visibility9999 m
Phenomena:N/A
Clouds:Scattered 026 Hf
Broken 110 Hf
Expected CloudBase > 2,000 ft AGL from Temp-Dew spread
Ceiling11,000 ft
Temp25°C (ISA +10)
Dew Point20°C (74% RH)
AAT24.4°C
QNH1018 hPa
Density Alt1,325 ft
Elevation23 ft
Report Wrong Elevation
Raw Report
FMCZ 220234Z 15012KT 9999 SCT026 BKN110 25/20 Q1018=

Extra information for FMCZ:More info

Metar Taf Metar & Taf Last 4 Metars F.Rules Stats Wind Profile Meteogram Temp Stats Airport Information Weather charts Add Link Nearby VenuesMetar ALERT Operation Metar Decoded Social comments